Jules — FAB9197 — position and weather

sailwx.info

Track history (hours):
 
Tides and Currents Weather Stations Pressure Air Temp Water Temp Dewpoint Dewpoint Depression Visibility Wind Speed Wind Dir Waves Ship Positions

Jules

Last reported at 2017-Oct-29 15:23 UTC. Time now 2017-Nov-20 09:51 UTC.
Position N 47°43' W 003°21'.
Warning: this ship's position is 21 days out of date.

Length 12 m.

Type: Sailing vessel. MMSI: 227252370.

Date/timePositionNaut miles runAvg speedWind from/ knotsBaromVisibWave heightAir tempDewpointWater temp
2017-Oct-29 15:23N 47°43' W 003°21'0 0.0
2017-Oct-29 14:56N 47°43' W 003°21'1 1.3
2017-Oct-29 14:30N 47°43' W 003°22'2 3.2
2017-Oct-29 14:00N 47°42' W 003°23'3 5.1
2017-Oct-29 13:30N 47°41' W 003°26'4 7.0
2017-Oct-29 13:00N 47°41' W 003°32'3 6.8
2017-Oct-29 12:30N 47°44' W 003°35'3 6.3
2017-Oct-29 12:00N 47°44' W 003°40'4 6.3
2017-Oct-29 11:25N 47°45' W 003°45'5 7.0
2017-Oct-29 10:43N 47°46' W 003°52'5 6.2
2017-Oct-29 09:58N 47°50' W 003°55'2 0.1
2017-Oct-28 15:53N 47°52' W 003°55'5 4.5
2017-Oct-28 14:49N 47°47' W 003°54'3 4.4
2017-Oct-28 14:14N 47°45' W 003°52'4 5.2
2017-Oct-28 13:28N 47°45' W 003°46'2 4.0
2017-Oct-28 12:51N 47°44' W 003°42'2 4.3
2017-Oct-28 12:30N 47°44' W 003°40'2 4.2
2017-Oct-28 12:00N 47°43' W 003°37'2 4.1
2017-Oct-28 11:30N 47°42' W 003°34'2 3.6
2017-Oct-28 11:00N 47°42' W 003°32'2 3.8
2017-Oct-28 10:30N 47°42' W 003°29'2 4.3
2017-Oct-28 10:00N 47°41' W 003°26'2 3.6
2017-Oct-28 09:30N 47°41' W 003°23'2 3.8
2017-Oct-28 09:00N 47°43' W 003°22'1 1.3
2017-Oct-28 08:29N 47°44' W 003°21'0 0.0
2017-Oct-28 07:59N 47°43' W 003°21'0 0.0
2017-Oct-28 07:29N 47°44' W 003°21'0 0.0
2017-Oct-28 06:59N 47°43' W 003°21'0 0.0
2017-Oct-28 06:29N 47°43' W 003°21'0 0.0
2017-Oct-28 05:59N 47°43' W 003°21'0 0.0
2017-Oct-28 05:29N 47°43' W 003°21'0 0.0
2017-Oct-28 04:59N 47°43' W 003°21'0 0.0
2017-Oct-28 04:29N 47°43' W 003°21'0 0.0
2017-Oct-28 03:59N 47°43' W 003°21'0 0.0
2017-Oct-28 03:29N 47°43' W 003°21'0 0.0
2017-Oct-28 02:59N 47°44' W 003°21'0 0.0
2017-Oct-28 02:29N 47°43' W 003°21'0 0.0
2017-Oct-28 01:59N 47°43' W 003°21'0 0.0
2017-Oct-28 01:29N 47°43' W 003°21'0 0.0
2017-Oct-28 00:59N 47°43' W 003°21'0 0.0
2017-Oct-28 00:26N 47°43' W 003°21'0 0.0
2017-Oct-27 23:59N 47°43' W 003°21'0 0.0
2017-Oct-27 23:29N 47°44' W 003°21'0 0.0
2017-Oct-27 22:59N 47°43' W 003°21'0 0.0
2017-Oct-27 22:29N 47°43' W 003°21'0 0.0
2017-Oct-27 21:59N 47°43' W 003°21'0 0.0
2017-Oct-27 21:26N 47°43' W 003°21'0 0.0
2017-Oct-27 20:59N 47°43' W 003°21'0 0.0
2017-Oct-27 20:29N 47°44' W 003°21'0 0.0
2017-Oct-27 19:59N 47°43' W 003°21'0 0.0
2017-Oct-27 19:29N 47°43' W 003°21'0 0.0
2017-Oct-27 18:59N 47°43' W 003°21'0 0.0
2017-Oct-27 18:29N 47°44' W 003°21'0 0.0
2017-Oct-27 17:56N 47°43' W 003°21'0 0.0
2017-Oct-27 17:29N 47°43' W 003°21'0 0.0
2017-Oct-27 16:59N 47°43' W 003°21'0 0.0
2017-Oct-27 16:26N 47°43' W 003°21'0 0.0
2017-Oct-27 15:59N 47°43' W 003°21'0 0.0
2017-Oct-27 15:29N 47°43' W 003°21'0 0.0
2017-Oct-27 14:59N 47°43' W 003°21'0 0.0
2017-Oct-27 14:29N 47°43' W 003°21'0 0.0
2017-Oct-27 13:56N 47°43' W 003°21'0 0.0
2017-Oct-27 13:29N 47°43' W 003°21'0 0.0
2017-Oct-27 12:59N 47°43' W 003°21'0 0.0
2017-Oct-27 12:26N 47°43' W 003°21'0 0.0
2017-Oct-27 11:56N 47°43' W 003°21'0 0.0
2017-Oct-27 11:29N 47°43' W 003°21'0 0.0
2017-Oct-27 10:56N 47°43' W 003°21'0 0.0
2017-Oct-27 10:29N 47°43' W 003°21'0 0.0
2017-Oct-27 09:59N 47°44' W 003°21'0 0.0
2017-Oct-27 09:29N 47°44' W 003°21'0 0.0
2017-Oct-27 08:59N 47°43' W 003°21'0 0.0
2017-Oct-27 08:29N 47°44' W 003°21'0 0.0
2017-Oct-27 07:59N 47°43' W 003°21'0 0.0
2017-Oct-27 07:29N 47°43' W 003°21'0 0.0
2017-Oct-27 06:59N 47°43' W 003°21'0 0.0
2017-Oct-27 06:29N 47°43' W 003°21'0 0.0
2017-Oct-27 05:56N 47°44' W 003°21'0 0.0
2017-Oct-27 05:29N 47°44' W 003°21'0 0.0
2017-Oct-27 04:59N 47°43' W 003°21'0 0.0
2017-Oct-27 04:29N 47°44' W 003°21'0 0.0
2017-Oct-27 03:59N 47°43' W 003°21'0 0.0
2017-Oct-27 03:29N 47°43' W 003°21'0 0.0
2017-Oct-27 02:56N 47°43' W 003°21'0 0.0
2017-Oct-27 02:29N 47°43' W 003°21'0 0.0
2017-Oct-27 01:53N 47°43' W 003°21'0 0.0
2017-Oct-27 01:29N 47°43' W 003°21'0 0.0
2017-Oct-27 00:59N 47°43' W 003°21'0 0.0
2017-Oct-27 00:29N 47°44' W 003°21'0 0.0
2017-Oct-26 23:59N 47°44' W 003°21'0 0.0
2017-Oct-26 23:29N 47°43' W 003°21'0 0.0
2017-Oct-26 22:59N 47°43' W 003°21'0 0.0
2017-Oct-26 22:29N 47°43' W 003°21'0 0.0
2017-Oct-26 21:59N 47°43' W 003°21'0 0.0
2017-Oct-26 21:29N 47°43' W 003°21'  
2017-Oct-21 09:37N 47°43' W 003°21'0 0.0
2017-Oct-21 09:28N 47°43' W 003°21'0 0.0
2017-Oct-21 08:58N 47°44' W 003°21'0 0.0
2017-Oct-21 08:30N 47°43' W 003°21'  
Track history (hours):
 
Tides and Currents Weather Stations Pressure Air Temp Water Temp Dewpoint Dewpoint Depression Visibility Wind Speed Wind Dir Waves Ship Positions

Jules

Last reported at 2017-Oct-29 15:23 UTC. Time now 2017-Nov-20 09:51 UTC.
Position N 47°43' W 003°21'.
Warning: this ship's position is 21 days out of date.

Length 12 m.

Type: Sailing vessel. MMSI: 227252370.

Date/timePositionNaut miles runAvg speedWind from/ knotsBaromVisibWave heightAir tempDewpointWater temp
2017-Oct-29 15:23N 47°43' W 003°21'0 0.0
2017-Oct-29 14:56N 47°43' W 003°21'1 1.3
2017-Oct-29 14:30N 47°43' W 003°22'2 3.2
2017-Oct-29 14:00N 47°42' W 003°23'3 5.1
2017-Oct-29 13:30N 47°41' W 003°26'4 7.0
2017-Oct-29 13:00N 47°41' W 003°32'3 6.8
2017-Oct-29 12:30N 47°44' W 003°35'3 6.3
2017-Oct-29 12:00N 47°44' W 003°40'4 6.3
2017-Oct-29 11:25N 47°45' W 003°45'5 7.0
2017-Oct-29 10:43N 47°46' W 003°52'5 6.2
2017-Oct-29 09:58N 47°50' W 003°55'2 0.1
2017-Oct-28 15:53N 47°52' W 003°55'5 4.5
2017-Oct-28 14:49N 47°47' W 003°54'3 4.4
2017-Oct-28 14:14N 47°45' W 003°52'4 5.2
2017-Oct-28 13:28N 47°45' W 003°46'2 4.0
2017-Oct-28 12:51N 47°44' W 003°42'2 4.3
2017-Oct-28 12:30N 47°44' W 003°40'2 4.2
2017-Oct-28 12:00N 47°43' W 003°37'2 4.1
2017-Oct-28 11:30N 47°42' W 003°34'2 3.6
2017-Oct-28 11:00N 47°42' W 003°32'2 3.8
2017-Oct-28 10:30N 47°42' W 003°29'2 4.3
2017-Oct-28 10:00N 47°41' W 003°26'2 3.6
2017-Oct-28 09:30N 47°41' W 003°23'2 3.8
2017-Oct-28 09:00N 47°43' W 003°22'1 1.3
2017-Oct-28 08:29N 47°44' W 003°21'0 0.0
2017-Oct-28 07:59N 47°43' W 003°21'0 0.0
2017-Oct-28 07:29N 47°44' W 003°21'0 0.0
2017-Oct-28 06:59N 47°43' W 003°21'0 0.0
2017-Oct-28 06:29N 47°43' W 003°21'0 0.0
2017-Oct-28 05:59N 47°43' W 003°21'0 0.0
2017-Oct-28 05:29N 47°43' W 003°21'0 0.0
2017-Oct-28 04:59N 47°43' W 003°21'0 0.0
2017-Oct-28 04:29N 47°43' W 003°21'0 0.0
2017-Oct-28 03:59N 47°43' W 003°21'0 0.0
2017-Oct-28 03:29N 47°43' W 003°21'0 0.0
2017-Oct-28 02:59N 47°44' W 003°21'0 0.0
2017-Oct-28 02:29N 47°43' W 003°21'0 0.0
2017-Oct-28 01:59N 47°43' W 003°21'0 0.0
2017-Oct-28 01:29N 47°43' W 003°21'0 0.0
2017-Oct-28 00:59N 47°43' W 003°21'0 0.0
2017-Oct-28 00:26N 47°43' W 003°21'0 0.0
2017-Oct-27 23:59N 47°43' W 003°21'0 0.0
2017-Oct-27 23:29N 47°44' W 003°21'0 0.0
2017-Oct-27 22:59N 47°43' W 003°21'0 0.0
2017-Oct-27 22:29N 47°43' W 003°21'0 0.0
2017-Oct-27 21:59N 47°43' W 003°21'0 0.0
2017-Oct-27 21:26N 47°43' W 003°21'0 0.0
2017-Oct-27 20:59N 47°43' W 003°21'0 0.0
2017-Oct-27 20:29N 47°44' W 003°21'0 0.0
2017-Oct-27 19:59N 47°43' W 003°21'0 0.0
2017-Oct-27 19:29N 47°43' W 003°21'0 0.0
2017-Oct-27 18:59N 47°43' W 003°21'0 0.0
2017-Oct-27 18:29N 47°44' W 003°21'0 0.0
2017-Oct-27 17:56N 47°43' W 003°21'0 0.0
2017-Oct-27 17:29N 47°43' W 003°21'0 0.0
2017-Oct-27 16:59N 47°43' W 003°21'0 0.0
2017-Oct-27 16:26N 47°43' W 003°21'0 0.0
2017-Oct-27 15:59N 47°43' W 003°21'0 0.0
2017-Oct-27 15:29N 47°43' W 003°21'0 0.0
2017-Oct-27 14:59N 47°43' W 003°21'0 0.0
2017-Oct-27 14:29N 47°43' W 003°21'0 0.0
2017-Oct-27 13:56N 47°43' W 003°21'0 0.0
2017-Oct-27 13:29N 47°43' W 003°21'0 0.0
2017-Oct-27 12:59N 47°43' W 003°21'0 0.0
2017-Oct-27 12:26N 47°43' W 003°21'0 0.0
2017-Oct-27 11:56N 47°43' W 003°21'0 0.0
2017-Oct-27 11:29N 47°43' W 003°21'0 0.0
2017-Oct-27 10:56N 47°43' W 003°21'0 0.0
2017-Oct-27 10:29N 47°43' W 003°21'0 0.0
2017-Oct-27 09:59N 47°44' W 003°21'0 0.0
2017-Oct-27 09:29N 47°44' W 003°21'0 0.0
2017-Oct-27 08:59N 47°43' W 003°21'0 0.0
2017-Oct-27 08:29N 47°44' W 003°21'0 0.0
2017-Oct-27 07:59N 47°43' W 003°21'0 0.0
2017-Oct-27 07:29N 47°43' W 003°21'0 0.0
2017-Oct-27 06:59N 47°43' W 003°21'0 0.0
2017-Oct-27 06:29N 47°43' W 003°21'0 0.0
2017-Oct-27 05:56N 47°44' W 003°21'0 0.0
2017-Oct-27 05:29N 47°44' W 003°21'0 0.0
2017-Oct-27 04:59N 47°43' W 003°21'0 0.0
2017-Oct-27 04:29N 47°44' W 003°21'0 0.0
2017-Oct-27 03:59N 47°43' W 003°21'0 0.0
2017-Oct-27 03:29N 47°43' W 003°21'0 0.0
2017-Oct-27 02:56N 47°43' W 003°21'0 0.0
2017-Oct-27 02:29N 47°43' W 003°21'0 0.0
2017-Oct-27 01:53N 47°43' W 003°21'0 0.0
2017-Oct-27 01:29N 47°43' W 003°21'0 0.0
2017-Oct-27 00:59N 47°43' W 003°21'0 0.0
2017-Oct-27 00:29N 47°44' W 003°21'0 0.0
2017-Oct-26 23:59N 47°44' W 003°21'0 0.0
2017-Oct-26 23:29N 47°43' W 003°21'0 0.0
2017-Oct-26 22:59N 47°43' W 003°21'0 0.0
2017-Oct-26 22:29N 47°43' W 003°21'0 0.0
2017-Oct-26 21:59N 47°43' W 003°21'0 0.0
2017-Oct-26 21:29N 47°43' W 003°21'  
2017-Oct-21 09:37N 47°43' W 003°21'0 0.0
2017-Oct-21 09:28N 47°43' W 003°21'0 0.0
2017-Oct-21 08:58N 47°44' W 003°21'0 0.0
2017-Oct-21 08:30N 47°43' W 003°21'  

Dump ship's entire track history